This is the latest recevied weather packets stored in our database for station/object DJ0JJ-11. If no packets are shown the sender has not sent any weather packets the latest 1 day(s).
| Time | Temp. | Humidity | Pressure | Rain* | Wind** | Luminosity | Snow |
|---|---|---|---|---|---|---|---|
| 1778047183 | 12.78° C | 78% | 1008.6 hPa | - | - | - | - |
| 1778046283 | 12.22° C | 79% | 1008.7 hPa | - | - | - | - |
| 1778045383 | 12.22° C | 78% | 1008.6 hPa | - | - | - | - |
| 1778044482 | 12.22° C | 78% | 1008.7 hPa | - | - | - | - |
| 1778042682 | 11.11° C | 80% | 1008.7 hPa | - | - | - | - |
| 1778041782 | 11.67° C | 80% | 1008.8 hPa | - | - | - | - |
| 1778040882 | 11.67° C | 78% | 1008.8 hPa | - | - | - | - |
| 1778039982 | 12.22° C | 79% | 1008.7 hPa | - | - | - | - |
| 1778039082 | 12.22° C | 79% | 1008.8 hPa | - | - | - | - |
| 1778038181 | 11.67° C | 81% | 1008.9 hPa | - | - | - | - |
| 1778037281 | 12.22° C | 79% | 1008.8 hPa | - | - | - | - |
| 1778036381 | 12.78° C | 79% | 1009 hPa | - | - | - | - |
| 1778035481 | 12.78° C | 79% | 1009.1 hPa | - | - | - | - |
| 1778034581 | 12.78° C | 80% | 1009.4 hPa | - | - | - | - |
| 1778033681 | 12.78° C | 80% | 1009.4 hPa | - | - | - | - |
| 1778031880 | 12.78° C | 80% | 1009.4 hPa | - | - | - | - |
| 1778030980 | 12.78° C | 80% | 1009.5 hPa | - | - | - | - |
| 1778030080 | 12.78° C | 80% | 1009.4 hPa | - | - | - | - |
| 1778029180 | 12.78° C | 82% | 1009.4 hPa | - | - | - | - |
| 1778028280 | 13.33° C | 79% | 1009.5 hPa | - | - | - | - |
| 1778027380 | 13.33° C | 81% | 1009.8 hPa | - | - | - | - |
| 1778021979 | 13.33° C | 81% | 1010.3 hPa | - | - | - | - |
| 1778021079 | 13.33° C | 82% | 1010.3 hPa | - | - | - | - |
| 1778017478 | 13.89° C | 82% | 1010.3 hPa | - | - | - | - |
| 1778016578 | 13.89° C | 81% | 1010.2 hPa | - | - | - | - |
* Rain since midnight (hover to see other rain measurements)
** Current wind speed in m/s (hover to see current wind gust speed)